Time;durP1;ratioP1;P1;durP2;ratioP2;P2;SDS_P1;SDS_P2;PMS_P1;PMS_P2;Temp;Humidity;BMP_temperature;BMP_pressure;BME280_temperature;BME280_humidity;BME280_pressure;Samples;Min_cycle;Max_cycle;Signal;HPM_P1;HPM_P2
2023/08/02 00:00:24;;;;;;;;;;;20.60;81.70;;;20.89;47.67;97816.84;4973119;28;114640;-89
2023/08/02 00:02:56;;;;;;;;;;;20.60;81.80;;;20.90;47.81;97812.81;4975111;28;113400;-88
2023/08/02 00:05:24;;;;;;;;;;;20.60;82.00;;;20.90;47.56;97798.78;4983208;28;124308;-89
2023/08/02 00:07:53;;;;;;;;;;;20.60;82.10;;;20.89;47.62;97795.16;4968203;28;122897;-88
2023/08/02 00:10:22;;;;;;;;;;;20.60;82.20;;;20.87;47.97;97797.56;4986854;28;114851;-88
2023/08/02 00:12:53;;;;;;;;;;;20.60;82.30;;;20.84;48.00;97809.63;4984816;28;113964;-88
2023/08/02 00:15:22;;;;;;;;;;;20.60;82.40;;;20.81;47.72;97804.81;4982478;28;124544;-89
2023/08/02 00:17:53;;;;;;;;;;;20.60;82.40;;;20.78;47.59;97799.22;4972100;28;123503;-87
2023/08/02 00:20:19;;;;;;;;;;;20.60;82.40;;;20.76;47.83;97798.81;4968838;28;114242;-89
2023/08/02 00:22:57;;;;;;;;;;;20.50;82.40;;;20.77;47.73;97797.59;4967549;28;113862;-88
2023/08/02 00:25:28;;;;;;;;;;;20.50;82.50;;;20.78;47.81;97800.03;4971990;28;123871;-89
2023/08/02 00:27:54;;;;;;;;;;;20.50;82.60;;;20.79;48.03;97789.59;4967935;28;123699;-89
2023/08/02 00:30:21;;;;;;;;;;;20.50;82.70;;;20.80;47.74;97775.16;4966910;28;115832;-89
2023/08/02 00:32:49;;;;;;;;;;;20.50;82.70;;;20.80;47.77;97775.16;4980424;28;114492;-88
2023/08/02 00:35:18;;;;;;;;;;;20.50;82.70;;;20.80;47.83;97775.16;4971190;28;123463;-88
2023/08/02 00:37:52;;;;;;;;;;;20.50;82.80;;;20.81;48.30;97764.72;4984779;28;123248;-89
2023/08/02 00:40:18;;;;;;;;;;;20.50;83.00;;;20.81;48.15;97761.91;4986804;28;114120;-89
2023/08/02 00:42:44;;;;;;;;;;;20.50;83.00;;;20.82;47.93;97749.47;4973531;28;113702;-89
2023/08/02 00:45:16;;;;;;;;;;;20.50;83.10;;;20.82;47.68;97750.28;4981291;28;125993;-88
2023/08/02 00:47:43;;;;;;;;;;;20.50;83.20;;;20.84;47.97;97747.84;4978959;28;124201;-89
2023/08/02 00:50:13;;;;;;;;;;;20.50;83.20;;;20.83;47.87;97737.03;4974986;28;114516;-89
2023/08/02 00:52:40;;;;;;;;;;;20.50;83.30;;;20.82;48.05;97735.44;4971827;28;113807;-88
2023/08/02 00:55:07;;;;;;;;;;;20.50;83.30;;;20.80;48.07;97729.44;4971392;28;124605;-89
2023/08/02 00:57:41;;;;;;;;;;;20.50;83.40;;;20.79;48.46;97739.06;4982047;28;124104;-88
2023/08/02 01:00:10;;;;;;;;;;;20.50;83.40;;;20.79;48.34;97736.25;4972400;28;112723;-89
2023/08/02 01:02:38;;;;;;;;;;;20.50;83.50;;;20.78;48.25;97731.84;4985071;28;112828;-88
2023/08/02 01:05:04;;;;;;;;;;;20.50;83.60;;;20.78;48.26;97737.47;4987932;28;124003;-89
2023/08/02 01:07:41;;;;;;;;;;;20.50;83.80;;;20.80;48.53;97740.66;4982370;28;123947;-88
2023/08/02 01:10:21;;;;;;;;;;;20.50;84.20;;;20.78;48.63;97737.47;4979399;28;114054;-88
2023/08/02 01:12:56;;;;;;;;;;;20.50;84.50;;;20.77;48.73;97731.06;4980453;28;114246;-89
2023/08/02 01:15:28;;;;;;;;;;;20.40;84.50;;;20.77;48.99;97739.47;4975323;28;124365;-89
2023/08/02 01:17:55;;;;;;;;;;;20.40;84.70;;;20.73;48.97;97745.09;4966545;28;123803;-89
2023/08/02 01:20:27;;;;;;;;;;;20.40;84.70;;;20.71;48.86;97743.88;4986821;28;115367;-91
2023/08/02 01:22:55;;;;;;;;;;;20.40;85.00;;;20.67;49.38;97738.28;4993409;28;114500;-91
2023/08/02 01:25:31;;;;;;;;;;;20.40;85.20;;;20.63;49.56;97725.47;4990883;28;124385;-91
2023/08/02 01:28:07;;;;;;;;;;;20.40;85.50;;;20.57;49.70;97711.06;4967002;28;123186;-91
2023/08/02 01:30:42;;;;;;;;;;;20.40;85.60;;;20.54;49.46;97711.09;4974278;28;114303;-88
2023/08/02 01:33:08;;;;;;;;;;;20.30;85.60;;;20.54;49.69;97705.47;4981112;28;113481;-91
2023/08/02 01:35:38;;;;;;;;;;;20.30;85.90;;;20.52;50.01;97708.63;4970018;28;123057;-89
2023/08/02 01:38:04;;;;;;;;;;;20.30;86.10;;;20.51;49.86;97701.44;4972044;28;123719;-88
2023/08/02 01:40:31;;;;;;;;;;;20.30;86.20;;;20.49;49.81;97706.66;4983154;28;115133;-88
2023/08/02 01:42:57;;;;;;;;;;;20.20;86.40;;;20.48;49.75;97710.66;4975677;28;114379;-88
2023/08/02 01:45:26;;;;;;;;;;;20.20;86.40;;;20.46;49.77;97694.22;4984193;28;124430;-89
2023/08/02 01:47:52;;;;;;;;;;;20.20;86.50;;;20.43;50.00;97697.06;4984917;28;123945;-89
2023/08/02 01:50:18;;;;;;;;;;;20.20;86.60;;;20.40;50.20;97703.47;4991353;28;114443;-89
2023/08/02 01:52:48;;;;;;;;;;;20.20;86.80;;;20.36;50.16;97695.06;4990202;28;113664;-88
2023/08/02 01:55:17;;;;;;;;;;;20.20;87.00;;;20.32;50.50;97699.09;4977169;28;123434;-88
2023/08/02 01:57:44;;;;;;;;;;;20.10;87.10;;;20.27;50.41;97715.13;4972586;28;124100;-89
2023/08/02 02:00:14;;;;;;;;;;;20.00;87.70;;;20.20;51.25;97698.31;4977254;28;114449;-89
2023/08/02 02:02:40;;;;;;;;;;;19.90;88.30;;;20.08;51.34;97712.75;4984049;28;114021;-89
2023/08/02 02:05:07;;;;;;;;;;;19.80;88.50;;;19.98;51.53;97713.56;4984085;28;124342;-90
2023/08/02 02:07:38;;;;;;;;;;;19.60;89.00;;;19.84;51.86;97692.75;4973396;28;123973;-89
2023/08/02 02:10:09;;;;;;;;;;;19.60;89.30;;;19.77;52.01;97684.34;4979975;28;115653;-88
2023/08/02 02:12:41;;;;;;;;;;;19.50;89.70;;;19.72;52.33;97670.75;4978766;28;113570;-89
2023/08/02 02:15:10;;;;;;;;;;;19.50;89.90;;;19.70;52.64;97675.16;4977757;28;124434;-89
2023/08/02 02:17:39;;;;;;;;;;;19.40;90.20;;;19.66;52.51;97669.53;4973133;28;123461;-89
2023/08/02 02:20:06;;;;;;;;;;;19.40;90.20;;;19.64;52.58;97669.13;4976776;28;114691;-89
2023/08/02 02:22:33;;;;;;;;;;;19.40;90.20;;;19.62;52.71;97669.50;4973939;28;114593;-89
2023/08/02 02:25:05;;;;;;;;;;;19.40;90.30;;;19.60;52.61;97663.50;4970182;28;124666;-89
2023/08/02 02:27:31;;;;;;;;;;;19.30;90.30;;;19.58;52.63;97667.88;4974306;28;123875;-89
2023/08/02 02:30:02;;;;;;;;;;;19.30;90.40;;;19.57;52.76;97666.31;4982463;28;113978;-89
2023/08/02 02:32:28;;;;;;;;;;;19.30;90.40;;;19.55;52.94;97658.28;4971057;28;114040;-89
2023/08/02 02:34:54;;;;;;;;;;;19.30;90.50;;;19.54;52.73;97650.28;4981122;28;124183;-88
2023/08/02 02:37:21;;;;;;;;;;;19.30;90.50;;;19.53;52.97;97652.31;4978485;28;123069;-89
2023/08/02 02:39:55;;;;;;;;;;;19.30;90.60;;;19.52;52.98;97641.47;4978911;28;114698;-88
2023/08/02 02:42:26;;;;;;;;;;;19.30;90.70;;;19.51;53.13;97642.69;4983160;28;113792;-88
2023/08/02 02:44:54;;;;;;;;;;;19.30;90.80;;;19.49;52.98;97642.28;4972337;28;123669;-90
2023/08/02 02:47:21;;;;;;;;;;;19.20;90.80;;;19.47;53.30;97647.47;4971754;28;123183;-89
2023/08/02 02:49:58;;;;;;;;;;;19.20;90.90;;;19.46;53.12;97643.09;4969647;28;114441;-91
2023/08/02 02:52:31;;;;;;;;;;;19.10;91.00;;;19.42;53.23;97640.28;4972030;28;113461;-90
2023/08/02 02:54:57;;;;;;;;;;;19.10;91.00;;;19.40;53.14;97646.28;4955424;28;123743;-90
2023/08/02 02:57:29;;;;;;;;;;;19.10;91.10;;;19.41;53.33;97647.88;4970956;28;123433;-90
2023/08/02 02:59:55;;;;;;;;;;;19.10;91.10;;;19.39;53.17;97636.25;4984960;28;115743;-90
2023/08/02 03:02:26;;;;;;;;;;;19.10;91.10;;;19.39;53.27;97636.25;4982413;28;114839;-90
2023/08/02 03:04:58;;;;;;;;;;;19.10;91.10;;;19.40;53.04;97631.50;4966127;28;123106;-90
2023/08/02 03:07:24;;;;;;;;;;;19.10;91.10;;;19.40;53.22;97620.28;4986257;28;122494;-91
2023/08/02 03:09:52;;;;;;;;;;;19.10;91.10;;;19.40;53.11;97617.47;4989883;28;115053;-90
2023/08/02 03:12:18;;;;;;;;;;;19.10;91.10;;;19.41;52.98;97614.25;4972350;28;113870;-90
2023/08/02 03:14:53;;;;;;;;;;;19.10;91.10;;;19.40;52.95;97615.47;4971743;28;123801;-90
2023/08/02 03:17:21;;;;;;;;;;;19.10;91.10;;;19.41;52.71;97614.25;4973110;28;123958;-92
2023/08/02 03:19:50;;;;;;;;;;;19.10;91.10;;;19.40;52.92;97607.06;4968412;28;114549;-90
2023/08/02 03:22:19;;;;;;;;;;;19.10;91.10;;;19.40;52.87;97612.69;4973075;28;113421;-91
2023/08/02 03:24:45;;;;;;;;;;;19.10;91.10;;;19.39;52.91;97602.66;4986612;28;125574;-90
2023/08/02 03:27:15;;;;;;;;;;;19.10;91.10;;;19.39;52.67;97599.06;4975356;28;122988;-89
2023/08/02 03:29:41;;;;;;;;;;;19.10;91.10;;;19.40;52.77;97606.28;4976269;28;114594;-89
2023/08/02 03:32:07;;;;;;;;;;;19.00;91.10;;;19.41;52.87;97589.06;4991373;28;114056;-90
2023/08/02 03:34:34;;;;;;;;;;;19.00;91.10;;;19.41;52.82;97599.47;4980581;28;123994;-90
2023/08/02 03:37:02;;;;;;;;;;;19.00;91.10;;;19.40;52.88;97593.06;4990307;28;123868;-91
2023/08/02 03:39:29;;;;;;;;;;;19.00;91.10;;;19.41;52.73;97593.84;4978200;28;114299;-90
2023/08/02 03:41:55;;;;;;;;;;;19.00;91.10;;;19.41;52.60;97583.44;4978447;28;113973;-90
2023/08/02 03:44:22;;;;;;;;;;;19.10;91.10;;;19.43;52.86;97589.47;4976191;28;123999;-89
2023/08/02 03:47:05;;;;;;;;;;;19.10;91.10;;;19.46;52.60;97587.06;4980590;28;97892;-88
2023/08/02 03:49:31;;;;;;;;;;;19.10;91.10;;;19.47;52.52;97574.66;4990278;28;115051;-89
2023/08/02 03:51:57;;;;;;;;;;;19.10;91.00;;;19.47;52.43;97578.25;4984329;28;113604;-89
2023/08/02 03:54:27;;;;;;;;;;;19.10;91.00;;;19.49;52.68;97580.66;4982344;28;123881;-89
2023/08/02 03:56:53;;;;;;;;;;;19.10;91.00;;;19.49;52.79;97561.03;4971767;28;125433;-91
2023/08/02 03:59:20;;;;;;;;;;;19.10;91.00;;;19.49;52.43;97549.84;4977647;28;114501;-89
2023/08/02 04:01:47;;;;;;;;;;;19.10;91.00;;;19.51;52.31;97544.63;4969968;28;114106;-89
2023/08/02 04:04:16;;;;;;;;;;;19.10;91.00;;;19.51;52.46;97541.84;4989884;28;123991;-88
2023/08/02 04:06:42;;;;;;;;;;;19.20;91.00;;;19.51;52.23;97530.63;4974901;28;124014;-89
2023/08/02 04:09:08;;;;;;;;;;;19.20;91.00;;;19.52;52.33;97535.03;4972757;28;114839;-90
2023/08/02 04:11:41;;;;;;;;;;;19.20;91.00;;;19.54;52.48;97530.63;4988572;28;113664;-89
2023/08/02 04:14:07;;;;;;;;;;;19.20;91.00;;;19.55;52.30;97528.59;4987220;28;122995;-88
2023/08/02 04:16:33;;;;;;;;;;;19.20;91.20;;;19.57;52.09;97535.41;4978871;28;123846;-90
2023/08/02 04:19:02;;;;;;;;;;;19.20;90.90;;;19.61;52.09;97529.78;4989648;28;114968;-89
2023/08/02 04:21:31;;;;;;;;;;;19.20;90.90;;;19.61;52.17;97527.81;4980956;28;113790;-90
2023/08/02 04:24:02;;;;;;;;;;;19.30;90.90;;;19.65;52.06;97530.59;4981357;28;124774;-89
2023/08/02 04:26:28;;;;;;;;;;;19.30;90.90;;;19.65;52.13;97519.38;4970954;28;122924;-90
2023/08/02 04:28:54;;;;;;;;;;;19.30;90.90;;;19.67;52.08;97522.63;4968662;28;114304;-90
2023/08/02 04:31:21;;;;;;;;;;;19.30;90.90;;;19.67;52.23;97513.41;4981156;28;113679;-90
2023/08/02 04:33:56;;;;;;;;;;;19.30;91.00;;;19.68;52.54;97510.19;4968538;28;123701;-91
2023/08/02 04:36:26;;;;;;;;;;;19.30;91.00;;;19.71;52.42;97514.19;4971193;28;123758;-89
2023/08/02 04:38:53;;;;;;;;;;;19.30;91.10;;;19.68;52.77;97501.78;4974855;28;115086;-90
2023/08/02 04:41:19;;;;;;;;;;;19.30;91.20;;;19.69;52.85;97503.38;4971111;28;114726;-90
2023/08/02 04:43:55;;;;;;;;;;;19.40;91.40;;;19.69;53.41;97511.78;4978041;28;123973;-89
2023/08/02 04:46:27;;;;;;;;;;;19.30;91.50;;;19.68;53.46;97503.78;4974051;28;124331;-89
2023/08/02 04:48:53;;;;;;;;;;;19.40;91.60;;;19.66;53.38;97501.38;4986502;28;114559;-91
2023/08/02 04:51:19;;;;;;;;;;;19.30;91.70;;;19.62;53.90;97494.97;4987529;28;112842;-90
2023/08/02 04:53:50;;;;;;;;;;;19.30;91.80;;;19.62;54.01;97495.78;4953111;28;123620;-89
2023/08/02 04:56:17;;;;;;;;;;;19.30;91.90;;;19.64;54.04;97486.97;4972356;28;123470;-88
2023/08/02 04:58:43;;;;;;;;;;;19.30;92.00;;;19.62;54.46;97483.78;4966479;28;113636;-89
2023/08/02 05:01:10;;;;;;;;;;;19.30;92.20;;;19.60;54.44;97480.56;4966515;28;113438;-89
2023/08/02 05:03:38;;;;;;;;;;;19.30;92.40;;;19.56;54.74;97482.59;4969710;28;124382;-88
2023/08/02 05:06:05;;;;;;;;;;;19.30;92.50;;;19.53;54.93;97494.59;4968492;28;122978;-87
2023/08/02 05:08:38;;;;;;;;;;;19.20;92.60;;;19.51;55.31;97488.59;4978141;28;114397;-90
2023/08/02 05:11:05;;;;;;;;;;;19.20;92.80;;;19.50;55.57;97498.19;4973771;28;113007;-88
2023/08/02 05:13:34;;;;;;;;;;;19.20;93.00;;;19.49;56.27;97493.81;4985424;28;124040;-89
2023/08/02 05:16:10;;;;;;;;;;;19.20;93.30;;;19.44;56.27;97492.22;4971180;28;123518;-89
2023/08/02 05:18:40;;;;;;;;;;;19.20;93.50;;;19.38;56.91;97489.03;4971824;28;114821;-89
2023/08/02 05:21:16;;;;;;;;;;;19.10;93.60;;;19.33;56.96;97488.63;4958960;28;114104;-88
2023/08/02 05:23:43;;;;;;;;;;;19.10;93.80;;;19.27;57.69;97484.66;4984875;28;124152;-89
2023/08/02 05:26:09;;;;;;;;;;;19.00;94.20;;;19.19;57.61;97476.25;4966854;28;122415;-90
2023/08/02 05:28:41;;;;;;;;;;;19.00;94.20;;;19.18;58.04;97471.88;4965131;28;115753;-89
2023/08/02 05:31:33;;;;;;;;;;;18.90;94.40;;;19.17;58.23;97472.25;4987948;28;114556;-89
2023/08/02 05:37:22;;;;;;;;;;;18.90;94.70;;;19.10;58.56;97470.28;4984219;28;124687;-89
2023/08/02 05:39:51;;;;;;;;;;;18.90;94.80;;;19.07;58.68;97465.47;4978318;28;113654;-90
2023/08/02 05:42:19;;;;;;;;;;;18.90;94.90;;;19.08;58.89;97464.28;4962765;28;113547;-89
2023/08/02 05:44:45;;;;;;;;;;;18.90;95.00;;;19.10;58.64;97463.84;4978550;28;124311;-89
2023/08/02 05:47:22;;;;;;;;;;;18.90;95.10;;;19.12;58.72;97467.84;4969930;28;122980;-89
2023/08/02 05:49:48;;;;;;;;;;;18.90;95.30;;;19.14;59.18;97459.06;4977250;28;113029;-89
2023/08/02 05:52:19;;;;;;;;;;;18.90;95.40;;;19.14;59.19;97453.47;4970689;28;113711;-88
2023/08/02 05:54:48;;;;;;;;;;;18.90;95.50;;;19.14;59.39;97445.06;4971622;28;122425;-89
2023/08/02 05:57:14;;;;;;;;;;;18.90;95.50;;;19.14;59.20;97448.66;4985289;28;122982;-89
2023/08/02 05:59:50;;;;;;;;;;;18.90;95.60;;;19.14;59.50;97440.25;4972604;28;113361;-88
2023/08/02 06:02:24;;;;;;;;;;;18.90;95.70;;;19.13;59.66;97451.88;4972551;28;113702;-89
2023/08/02 06:04:50;;;;;;;;;;;18.90;96.00;;;19.13;59.76;97440.69;4973462;28;123909;-88
2023/08/02 06:07:20;;;;;;;;;;;18.90;96.00;;;19.15;59.36;97450.25;4980771;28;123925;-89
2023/08/02 06:09:48;;;;;;;;;;;18.90;96.00;;;19.13;59.59;97451.88;4982976;28;114655;-89
2023/08/02 06:12:15;;;;;;;;;;;18.90;96.10;;;19.14;59.96;97459.06;4999239;28;112971;-88
2023/08/02 06:14:44;;;;;;;;;;;18.90;96.10;;;19.14;59.84;97450.66;4977192;28;124136;-91
2023/08/02 06:17:10;;;;;;;;;;;18.90;96.20;;;19.16;60.13;97445.47;4976271;28;123935;-89
2023/08/02 06:19:36;;;;;;;;;;;18.90;96.30;;;19.18;60.01;97429.03;4976531;28;115211;-90
2023/08/02 06:22:03;;;;;;;;;;;18.90;96.40;;;19.19;60.23;97442.66;4996400;28;115427;-89
2023/08/02 06:24:35;;;;;;;;;;;18.90;96.50;;;19.21;59.99;97431.06;4990496;28;123475;-90
2023/08/02 06:27:01;;;;;;;;;;;18.90;96.50;;;19.21;60.31;97431.06;4971345;28;124785;-90
2023/08/02 06:29:38;;;;;;;;;;;18.90;96.60;;;19.20;60.23;97421.84;4976678;28;114648;-89
2023/08/02 06:32:14;;;;;;;;;;;18.90;96.60;;;19.21;60.19;97419.88;4984050;28;113614;-90
2023/08/02 06:34:40;;;;;;;;;;;18.90;96.70;;;19.24;60.47;97410.66;4987769;28;123617;-92
2023/08/02 06:37:10;;;;;;;;;;;18.90;96.80;;;19.28;60.79;97408.63;4972424;28;123364;-89
2023/08/02 06:39:36;;;;;;;;;;;19.00;96.90;;;19.33;60.52;97411.00;4979176;28;114519;-89
2023/08/02 06:42:03;;;;;;;;;;;19.00;97.00;;;19.36;60.54;97403.81;4980766;28;114041;-89
2023/08/02 06:44:34;;;;;;;;;;;19.00;97.10;;;19.39;60.52;97389.78;4991057;28;124305;-89
2023/08/02 06:47:00;;;;;;;;;;;19.00;97.10;;;19.40;60.65;97387.78;4977980;28;123963;-88
2023/08/02 06:49:34;;;;;;;;;;;19.10;97.20;;;19.42;60.72;97380.59;4975430;28;114427;-88
2023/08/02 06:52:00;;;;;;;;;;;19.10;97.20;;;19.45;60.55;97367.78;4979412;28;113539;-89
2023/08/02 06:54:27;;;;;;;;;;;19.10;97.20;;;19.47;60.73;97376.53;4962216;28;123742;-88
2023/08/02 06:56:56;;;;;;;;;;;19.10;97.30;;;19.51;60.79;97370.94;4985236;28;124425;-88
2023/08/02 06:59:23;;;;;;;;;;;19.20;97.40;;;19.53;60.64;97368.50;4982700;28;114877;-88
2023/08/02 07:01:49;;;;;;;;;;;19.10;97.30;;;19.54;60.78;97367.31;4983652;28;113771;-89
2023/08/02 07:04:15;;;;;;;;;;;19.20;97.50;;;19.53;60.93;97363.72;4968100;28;124469;-88
2023/08/02 07:06:48;;;;;;;;;;;19.20;97.50;;;19.55;60.87;97366.91;4971550;28;124356;-89
2023/08/02 07:09:14;;;;;;;;;;;19.20;97.50;;;19.57;60.71;97358.91;4983997;28;115267;-85
2023/08/02 07:11:44;;;;;;;;;;;19.20;97.50;;;19.59;60.85;97362.09;4980251;28;114728;-89
2023/08/02 07:14:10;;;;;;;;;;;19.20;97.60;;;19.59;60.82;97356.50;4974377;28;124487;-89
2023/08/02 07:16:36;;;;;;;;;;;19.30;97.50;;;19.57;61.00;97361.69;4991821;28;124316;-87
2023/08/02 07:19:11;;;;;;;;;;;20.30;98.00;;;19.57;60.92;97346.91;4972200;28;114888;-90
2023/08/02 07:21:39;;;;;;;;;;;19.30;97.70;;;19.60;61.21;97357.28;4981726;28;113830;-90
2023/08/02 07:24:10;;;;;;;;;;;19.20;97.60;;;19.65;61.17;97343.63;4982821;28;124778;-89
2023/08/02 07:26:37;;;;;;;;;;;19.30;97.70;;;19.71;61.03;97330.03;4977633;28;123885;-86
2023/08/02 07:29:09;;;;;;;;;;;19.30;97.70;;;19.75;60.95;97330.81;4973628;28;114478;-87
2023/08/02 07:31:35;;;;;;;;;;;19.40;97.80;;;19.75;61.13;97328.00;4985437;28;113761;-88
2023/08/02 07:34:02;;;;;;;;;;;19.30;97.80;;;19.78;61.11;97320.78;4988665;28;126159;-87
2023/08/02 07:36:31;;;;;;;;;;;19.40;97.80;;;19.80;61.23;97313.56;4972127;28;123776;-85
2023/08/02 07:38:57;;;;;;;;;;;19.40;97.90;;;19.79;61.18;97309.16;4980112;28;114257;-88
2023/08/02 07:41:23;;;;;;;;;;;19.40;97.90;;;19.79;61.18;97306.34;4988442;28;113839;-90
2023/08/02 07:43:50;;;;;;;;;;;19.40;98.00;;;19.80;61.33;97310.78;4989899;28;123965;-89
2023/08/02 07:46:22;;;;;;;;;;;19.50;98.10;;;19.82;61.45;97297.13;4971512;28;123838;-87
2023/08/02 07:48:57;;;;;;;;;;;19.50;98.20;;;19.85;61.99;97295.50;4985559;28;114333;-89
2023/08/02 07:51:24;;;;;;;;;;;19.50;98.50;;;19.85;61.77;97296.31;4984700;28;114360;-89
2023/08/02 07:53:50;;;;;;;;;;;19.50;98.50;;;19.91;62.39;97293.88;4988185;28;124566;-88
2023/08/02 07:56:19;;;;;;;;;;;19.50;98.60;;;19.94;62.30;97292.25;4973175;28;125564;-87
2023/08/02 07:58:45;;;;;;;;;;;19.50;98.80;;;19.93;62.84;97302.66;4977820;28;115512;-87
2023/08/02 08:01:12;;;;;;;;;;;19.60;99.20;;;19.92;62.91;97289.84;4974423;28;114329;-88
2023/08/02 08:03:38;;;;;;;;;;;19.60;99.10;;;19.89;62.96;97281.47;4974997;28;124282;-87
2023/08/02 08:06:23;;;;;;;;;;;19.60;99.10;;;19.92;62.97;97286.25;4987492;28;124264;-88
2023/08/02 08:08:56;;;;;;;;;;;19.60;99.00;;;19.95;62.82;97279.81;4983175;28;116133;-89
2023/08/02 08:11:22;;;;;;;;;;;19.60;99.20;;;19.98;63.08;97276.19;4980916;28;112994;-88
2023/08/02 08:13:51;;;;;;;;;;;19.60;99.30;;;20.00;63.12;97279.38;4975151;28;124009;-90
2023/08/02 08:16:20;;;;;;;;;;;19.60;99.50;;;20.03;63.50;97264.53;4981680;28;124042;-85
2023/08/02 08:18:48;;;;;;;;;;;19.70;99.60;;;20.03;63.72;97258.94;4981937;28;114405;-87
2023/08/02 08:21:20;;;;;;;;;;;19.60;99.80;;;20.04;63.67;97252.91;4982360;28;114014;-85
2023/08/02 08:23:46;;;;;;;;;;;19.70;99.80;;;20.05;63.72;97248.91;4991203;28;124275;-89
2023/08/02 08:26:12;;;;;;;;;;;19.70;99.80;;;20.09;63.55;97243.25;4987111;28;124035;-86
2023/08/02 08:28:42;;;;;;;;;;;19.70;99.80;;;20.12;63.60;97236.00;4986844;28;114393;-85
2023/08/02 08:31:08;;;;;;;;;;;19.70;99.90;;;20.13;63.73;97244.03;4990236;28;113623;-86
2023/08/02 08:33:34;;;;;;;;;;;19.70;99.90;;;20.13;63.73;97232.81;4968420;28;124418;-87
2023/08/02 08:36:01;;;;;;;;;;;19.70;99.90;;;20.12;64.09;97241.63;4981351;28;124336;-87
2023/08/02 08:38:30;;;;;;;;;;;19.70;99.90;;;20.11;64.06;97243.63;4970685;28;114537;-87
2023/08/02 08:40:59;;;;;;;;;;;19.70;99.90;;;20.15;64.16;97243.59;4972631;28;113911;-87
2023/08/02 08:43:29;;;;;;;;;;;19.80;99.90;;;20.17;64.55;97233.56;4972503;28;124593;-87
2023/08/02 08:45:59;;;;;;;;;;;19.70;99.90;;;20.16;64.76;97217.16;4982750;28;123503;-88
2023/08/02 08:48:33;;;;;;;;;;;19.70;99.90;;;20.18;65.18;97218.34;4983085;28;115311;-91
2023/08/02 08:51:01;;;;;;;;;;;19.70;99.90;;;20.16;65.37;97208.75;4979743;28;114937;-90
2023/08/02 08:53:46;;;;;;;;;;;19.70;99.90;;;20.16;65.33;97220.75;4971609;28;124422;-88
2023/08/02 08:56:12;;;;;;;;;;;19.70;99.90;;;20.17;65.21;97201.91;4977410;28;123822;-88
2023/08/02 08:58:41;;;;;;;;;;;19.70;99.90;;;20.17;65.45;97211.13;4977046;28;114530;-87
2023/08/02 09:01:08;;;;;;;;;;;19.70;99.90;;;20.20;65.59;97221.53;4975375;28;113826;-89
2023/08/02 09:03:35;;;;;;;;;;;19.80;99.90;;;20.22;65.47;97202.25;4978837;28;123173;-87
2023/08/02 09:06:06;;;;;;;;;;;19.80;99.90;;;20.23;65.02;97211.47;4974996;28;123998;-87
2023/08/02 09:08:47;;;;;;;;;;;19.80;99.90;;;20.23;65.55;97205.84;4985075;28;113919;-86
2023/08/02 09:11:15;;;;;;;;;;;19.80;99.90;;;20.23;65.97;97205.84;4989507;28;113872;-88
2023/08/02 09:13:44;;;;;;;;;;;19.80;99.90;;;20.22;65.29;97210.69;4997905;28;124252;-88
2023/08/02 09:16:13;;;;;;;;;;;19.80;99.90;;;20.22;65.70;97207.88;4982716;28;124428;-87
2023/08/02 09:18:49;;;;;;;;;;;19.80;99.90;;;20.23;65.75;97205.84;4983919;28;114453;-86
2023/08/02 09:21:22;;;;;;;;;;;19.90;99.90;;;20.26;65.66;97191.81;4980732;28;113923;-86
2023/08/02 09:24:00;;;;;;;;;;;19.90;99.90;;;20.29;65.73;97190.97;4970636;28;124335;-85
2023/08/02 09:26:35;;;;;;;;;;;19.90;99.90;;;20.32;65.69;97189.34;4978685;28;124354;-86
2023/08/02 09:29:10;;;;;;;;;;;20.00;99.90;;;20.36;66.23;97194.91;4973003;28;116027;-88
2023/08/02 09:31:36;;;;;;;;;;;20.00;99.90;;;20.35;65.98;97180.09;4992591;28;113355;-87
2023/08/02 09:34:06;;;;;;;;;;;20.00;99.90;;;20.37;66.21;97179.69;4985517;28;123542;-88
2023/08/02 09:36:34;;;;;;;;;;;20.00;99.90;;;20.40;66.04;97179.66;4974144;28;123268;-89
2023/08/02 09:39:19;;;;;;;;;;;20.00;99.90;;;20.43;65.59;97176.00;4971612;28;115708;-84
2023/08/02 09:41:45;;;;;;;;;;;20.00;99.90;;;20.45;65.90;97175.59;4974349;28;114792;-88
2023/08/02 09:44:22;;;;;;;;;;;20.10;99.90;;;20.46;66.23;97166.75;4977455;28;123694;-89
2023/08/02 09:46:48;;;;;;;;;;;20.10;99.90;;;20.48;65.79;97150.28;4990081;28;123915;-88
2023/08/02 09:49:21;;;;;;;;;;;20.10;99.90;;;20.55;65.68;97151.44;4956377;28;113502;-87
2023/08/02 09:51:48;;;;;;;;;;;20.10;99.90;;;20.59;65.89;97138.97;4976434;28;113792;-88
2023/08/02 09:54:17;;;;;;;;;;;20.20;99.90;;;20.65;65.62;97145.69;4972206;28;123827;-88
2023/08/02 09:56:44;;;;;;;;;;;20.20;99.90;;;20.70;65.71;97148.03;4982380;28;124152;-85
2023/08/02 09:59:12;;;;;;;;;;;20.30;99.90;;;20.73;65.82;97147.19;4971679;28;113494;-83
2023/08/02 10:01:42;;;;;;;;;;;20.30;99.90;;;20.80;65.55;97148.34;4956686;28;113137;-83
2023/08/02 10:04:13;;;;;;;;;;;20.30;99.90;;;20.85;65.37;97140.25;4978290;28;125902;-83
2023/08/02 10:06:56;;;;;;;;;;;20.40;99.90;;;20.91;65.44;97140.56;4987858;28;123847;-83
2023/08/02 10:09:31;;;;;;;;;;;20.40;99.90;;;20.99;65.23;97122.41;4975684;28;114521;-77
2023/08/02 10:12:07;;;;;;;;;;;20.50;99.90;;;21.04;65.41;97121.94;4991459;28;114543;-87
2023/08/02 10:14:37;;;;;;;;;;;20.50;99.90;;;21.13;65.28;97105.34;4987554;28;124294;-86
2023/08/02 10:17:06;;;;;;;;;;;20.60;99.90;;;21.20;64.81;97112.88;4959782;28;122231;-87
2023/08/02 10:19:36;;;;;;;;;;;20.70;99.90;;;21.26;65.15;97101.94;4980414;28;114997;-87
2023/08/02 10:22:05;;;;;;;;;;;20.70;99.90;;;21.33;64.56;97093.38;4983893;28;113988;-86
2023/08/02 10:24:32;;;;;;;;;;;20.80;99.90;;;21.37;64.64;97091.31;4985020;28;123238;-85
2023/08/02 10:27:07;;;;;;;;;;;20.90;99.90;;;21.43;64.81;97094.47;4969299;28;123776;-83
2023/08/02 10:29:42;;;;;;;;;;;20.90;99.90;;;21.45;64.60;97101.25;4979379;28;115666;-83
2023/08/02 10:32:19;;;;;;;;;;;21.00;99.90;;;21.45;64.64;97087.22;4975722;28;114418;-86
2023/08/02 10:34:46;;;;;;;;;;;21.00;99.90;;;21.47;64.93;97090.38;4976597;28;124186;-84
2023/08/02 10:37:21;;;;;;;;;;;21.10;99.90;;;21.49;64.71;97085.13;4978822;28;124523;-84
2023/08/02 10:40:08;;;;;;;;;;;21.10;99.90;;;21.49;64.86;97079.50;4983394;28;114520;-86
2023/08/02 10:43:05;;;;;;;;;;;21.10;99.90;;;21.51;64.71;97071.44;4979917;28;113018;-84
2023/08/02 10:45:33;;;;;;;;;;;21.10;99.90;;;21.54;65.09;97073.38;4986647;28;124205;-87
2023/08/02 10:48:25;;;;;;;;;;;21.10;99.90;;;21.53;64.59;97071.81;4973909;28;123406;-83
2023/08/02 10:50:52;;;;;;;;;;;21.20;99.90;;;21.53;64.74;97080.25;4969909;28;113400;-84
2023/08/02 10:53:19;;;;;;;;;;;21.20;99.90;;;21.56;64.49;97070.16;4987091;28;113985;-86
2023/08/02 10:56:17;;;;;;;;;;;21.20;99.90;;;21.55;64.25;97048.91;4955052;28;123635;-84
2023/08/02 10:58:52;;;;;;;;;;;21.30;99.90;;;21.59;64.15;97044.00;4967331;28;123879;-85
2023/08/02 11:01:19;;;;;;;;;;;21.20;99.90;;;21.65;64.16;97039.47;4962964;28;114423;-87
2023/08/02 11:03:52;;;;;;;;;;;21.30;99.90;;;21.70;63.55;97038.19;4973539;28;114272;-85
2023/08/02 11:06:28;;;;;;;;;;;21.30;99.90;;;21.75;64.02;97040.50;4943816;28;123602;-86
2023/08/02 11:08:54;;;;;;;;;;;21.30;99.90;;;21.79;63.16;97035.63;4926020;28;122815;-88
2023/08/02 11:11:29;;;;;;;;;;;21.40;99.90;;;21.83;63.52;97019.47;4973526;28;113658;-88
2023/08/02 11:14:04;;;;;;;;;;;21.40;99.90;;;21.86;63.31;97031.88;4969176;28;113886;-85
2023/08/02 11:16:39;;;;;;;;;;;21.40;99.90;;;21.89;62.99;97023.34;4969768;28;123514;-87
2023/08/02 11:19:18;;;;;;;;;;;21.50;99.90;;;21.93;62.98;97024.09;4950582;28;124277;-85
2023/08/02 11:21:56;;;;;;;;;;;21.50;99.90;;;21.97;62.76;97032.44;4963099;28;115998;-85
2023/08/02 11:24:26;;;;;;;;;;;21.50;99.90;;;21.99;62.90;97027.19;4953621;28;114578;-86